< Typhoon 195415 1954 Season Typhoon 195417 >
Typhoon 195416 (NANCY)
General InformationTrack Information on Google Maps || Disaster Info.ResourceGoogle EarthGE AnimationAtom FeedGeoJSON
Detalied Best Track (Time Zone = UTC)
Year Month Day Hour Lat. Long. Pressure (hPa) Wind (kt) Class Image Chart
1954 10 5 00 15.6 139.7 1006 0 9 -- Chart
1954 10 5 06 15.7 138.3 1000 0 9 -- Chart
1954 10 5 12 15.8 137.0 1000 0 9 -- Chart
1954 10 5 18 15.8 135.5 1000 0 9 -- Chart
1954 10 6 00 15.9 134.0 1000 0 9 -- Chart
1954 10 6 06 16.3 132.4 996 0 9 -- Chart
1954 10 6 12 16.6 130.7 990 0 9 -- Chart
1954 10 6 18 16.5 129.0 980 0 9 -- Chart
1954 10 7 00 16.5 127.3 975 0 9 -- Chart
1954 10 7 06 17.1 125.7 965 0 9 -- Chart
1954 10 7 12 17.3 124.1 965 0 9 -- Chart
1954 10 7 18 17.3 122.9 965 0 9 -- Chart
1954 10 8 00 17.3 121.8 965 0 9 -- Chart
1954 10 8 06 17.6 120.5 980 0 9 -- Chart
1954 10 8 12 17.6 119.1 980 0 9 -- Chart
1954 10 8 18 17.3 118.0 980 0 9 -- Chart
1954 10 9 00 17.5 116.9 980 0 9 -- Chart
1954 10 9 06 17.9 115.7 980 0 9 -- Chart
1954 10 9 12 18.2 114.9 980 0 9 -- Chart
1954 10 9 18 18.2 114.0 980 0 9 -- Chart
1954 10 10 00 18.1 113.1 980 0 9 -- Chart
1954 10 10 06 18.1 112.2 980 0 9 -- Chart
1954 10 10 12 18.1 111.3 980 0 9 -- Chart
1954 10 10 18 18.1 110.4 980 0 9 -- Chart
1954 10 11 00 18.1 109.7 980 0 9 -- Chart
1954 10 11 06 18.1 108.8 985 0 9 -- Chart
1954 10 11 12 18.2 107.8 985 0 9 -- Chart
1954 10 11 18 18.3 106.8 985 0 9 -- Chart
1954 10 12 00 18.5 105.9 985 0 9 -- Chart
1954 10 12 06 19.0 105.1 995 0 9 -- Chart
Japan Meteorological Agency Best Track Data | Correction Date : 1989-06-01
< Typhoon 195415 1954 Season Typhoon 195417 >

Help